Golom — IBAM — position and weather

sailwx.info

Track history (hours):
 
Tides and Currents Weather Stations Pressure Air Temp Water Temp Dewpoint Dewpoint Depression Visibility Wind Speed Wind Dir Waves Ship Positions

Golom

Last reported at 2017-Dec-11 13:33 UTC. Time now 2017-Dec-14 13:00 UTC.
Position N 37°48' W 000°18'.

MMSI: 247003300.

Date/timePositionNaut miles runAvg speedWind from/ knotsBaromVisibWave heightAir tempDewpointWater temp
2017-Dec-11 13:33N 37°48' W 000°18'320.5
2017-Dec-11 13:24N 37°45' W 000°20'820.3
2017-Dec-11 13:01N 37°38' W 000°26'1020.1
2017-Dec-11 12:30N 37°30' W 000°34'1019.9
2017-Dec-11 12:01N 37°24' W 000°43'1019.2
2017-Dec-11 11:31N 37°17' W 000°51'1019.2
2017-Dec-11 11:00N 37°10' W 001°00'8 0.2
2017-Dec-10 00:01N 37°17' W 000°55'121.3
2017-Dec-09 23:57N 37°18' W 000°54'1021.2
2017-Dec-09 23:29N 37°25' W 000°45'1020.9
2017-Dec-09 23:01N 37°31' W 000°36'1020.7
2017-Dec-09 22:30N 37°40' W 000°28'2420.6
2017-Dec-09 21:21N 38°00' W 000°12'20820.7
2017-Dec-09 11:17N 41°01' E 001°60'620.7
2017-Dec-09 11:00N 41°07' E 002°03'1220.1
2017-Dec-09 10:23N 41°18' E 002°10'0 0.0
2017-Dec-09 05:32N 41°18' E 002°11'116.6
2017-Dec-09 05:29N 41°17' E 002°11'242 6.7
2017-Dec-07 17:10N 37°45' W 000°20'321.5
2017-Dec-07 17:00N 37°42' W 000°23'1221.3
2017-Dec-07 16:28N 37°33' W 000°31'1020.8
2017-Dec-07 16:00N 37°26' W 000°41'1020.9
2017-Dec-07 15:30N 37°20' W 000°50'1121.0
2017-Dec-07 15:00N 37°13' W 000°60'  
2017-Dec-03 09:57N 43°20' E 004°11'920.1
2017-Dec-03 09:30N 43°18' E 004°23'1019.7
2017-Dec-03 09:01N 43°17' E 004°36'1019.5
2017-Dec-03 08:31N 43°13' E 004°48'1019.5
2017-Dec-03 08:00N 43°10' E 005°01'8619.3
2017-Dec-03 03:31N 43°14' E 006°59'121.0
2017-Dec-03 03:28N 43°15' E 007°01'1021.2
2017-Dec-03 03:00N 43°21' E 007°11'1121.6
2017-Dec-03 02:30N 43°28' E 007°23'1221.7
2017-Dec-03 01:56N 43°35' E 007°37'3221.6
2017-Dec-03 00:29N 43°53' E 008°12'1021.7
2017-Dec-03 00:01N 43°59' E 008°24'1121.5
2017-Dec-02 23:30N 44°06' E 008°36'1121.1
2017-Dec-02 23:01N 44°13' E 008°46'1020.8
2017-Dec-02 22:30N 44°20' E 008°58'510.8
2017-Dec-02 22:00N 44°25' E 008°55'0 0.1
2017-Dec-02 21:28N 44°25' E 008°55'0 0.0
2017-Dec-02 20:58N 44°25' E 008°55'0 0.0
2017-Dec-02 20:28N 44°25' E 008°55'0 0.0
2017-Dec-02 19:58N 44°25' E 008°55'0 0.0
2017-Dec-02 19:28N 44°25' E 008°55'0 0.0
2017-Dec-02 18:55N 44°25' E 008°55'0 0.0
2017-Dec-02 18:28N 44°25' E 008°55'0 0.0
2017-Dec-02 17:49N 44°25' E 008°55'0 0.0
2017-Dec-02 17:25N 44°25' E 008°55'0 0.0
2017-Dec-02 16:58N 44°25' E 008°55'0 0.0
2017-Dec-02 16:25N 44°25' E 008°55'0 0.0
2017-Dec-02 15:58N 44°25' E 008°55'0 0.0
2017-Dec-02 15:28N 44°25' E 008°55'0 0.0
2017-Dec-02 14:55N 44°25' E 008°55'0 0.0
2017-Dec-02 14:25N 44°25' E 008°55'0 0.0
2017-Dec-02 13:55N 44°25' E 008°55'0 0.0
2017-Dec-02 13:25N 44°25' E 008°55'0 0.0
2017-Dec-02 12:55N 44°25' E 008°55'0 0.0
2017-Dec-02 12:28N 44°25' E 008°55'0 0.0
2017-Dec-02 11:55N 44°25' E 008°55'0 0.0
2017-Dec-02 11:28N 44°25' E 008°55'0 0.1
2017-Dec-02 10:58N 44°25' E 008°55'0 0.3
2017-Dec-02 10:30N 44°24' E 008°55'0 0.0
2017-Dec-02 09:51N 44°24' E 008°55'0 0.0
2017-Dec-02 09:30N 44°24' E 008°55'0 0.0
2017-Dec-02 09:00N 44°24' E 008°55'0 0.0
2017-Dec-02 08:30N 44°24' E 008°55'2 3.1
2017-Dec-02 08:00N 44°23' E 008°56'510.6
2017-Dec-02 07:30N 44°18' E 008°58'1020.1
2017-Dec-02 07:00N 44°12' E 008°46'1019.9
2017-Dec-02 06:30N 44°06' E 008°35'1019.5
2017-Dec-02 06:00N 44°01' E 008°24'3819.1
2017-Dec-02 04:02N 43°37' E 007°43'318.9
2017-Dec-02 03:52N 43°35' E 007°40'718.9
2017-Dec-02 03:30N 43°30' E 007°33'1019.1
2017-Dec-02 03:01N 43°24' E 007°24'1019.6
2017-Dec-02 02:31N 43°18' E 007°13'1019.3
2017-Dec-02 02:00N 43°12' E 007°02'  
Track history (hours):
 
Tides and Currents Weather Stations Pressure Air Temp Water Temp Dewpoint Dewpoint Depression Visibility Wind Speed Wind Dir Waves Ship Positions

Golom

Last reported at 2017-Dec-11 13:33 UTC. Time now 2017-Dec-14 13:00 UTC.
Position N 37°48' W 000°18'.

MMSI: 247003300.

Date/timePositionNaut miles runAvg speedWind from/ knotsBaromVisibWave heightAir tempDewpointWater temp
2017-Dec-11 13:33N 37°48' W 000°18'320.5
2017-Dec-11 13:24N 37°45' W 000°20'820.3
2017-Dec-11 13:01N 37°38' W 000°26'1020.1
2017-Dec-11 12:30N 37°30' W 000°34'1019.9
2017-Dec-11 12:01N 37°24' W 000°43'1019.2
2017-Dec-11 11:31N 37°17' W 000°51'1019.2
2017-Dec-11 11:00N 37°10' W 001°00'8 0.2
2017-Dec-10 00:01N 37°17' W 000°55'121.3
2017-Dec-09 23:57N 37°18' W 000°54'1021.2
2017-Dec-09 23:29N 37°25' W 000°45'1020.9
2017-Dec-09 23:01N 37°31' W 000°36'1020.7
2017-Dec-09 22:30N 37°40' W 000°28'2420.6
2017-Dec-09 21:21N 38°00' W 000°12'20820.7
2017-Dec-09 11:17N 41°01' E 001°60'620.7
2017-Dec-09 11:00N 41°07' E 002°03'1220.1
2017-Dec-09 10:23N 41°18' E 002°10'0 0.0
2017-Dec-09 05:32N 41°18' E 002°11'116.6
2017-Dec-09 05:29N 41°17' E 002°11'242 6.7
2017-Dec-07 17:10N 37°45' W 000°20'321.5
2017-Dec-07 17:00N 37°42' W 000°23'1221.3
2017-Dec-07 16:28N 37°33' W 000°31'1020.8
2017-Dec-07 16:00N 37°26' W 000°41'1020.9
2017-Dec-07 15:30N 37°20' W 000°50'1121.0
2017-Dec-07 15:00N 37°13' W 000°60'  
2017-Dec-03 09:57N 43°20' E 004°11'920.1
2017-Dec-03 09:30N 43°18' E 004°23'1019.7
2017-Dec-03 09:01N 43°17' E 004°36'1019.5
2017-Dec-03 08:31N 43°13' E 004°48'1019.5
2017-Dec-03 08:00N 43°10' E 005°01'8619.3
2017-Dec-03 03:31N 43°14' E 006°59'121.0
2017-Dec-03 03:28N 43°15' E 007°01'1021.2
2017-Dec-03 03:00N 43°21' E 007°11'1121.6
2017-Dec-03 02:30N 43°28' E 007°23'1221.7
2017-Dec-03 01:56N 43°35' E 007°37'3221.6
2017-Dec-03 00:29N 43°53' E 008°12'1021.7
2017-Dec-03 00:01N 43°59' E 008°24'1121.5
2017-Dec-02 23:30N 44°06' E 008°36'1121.1
2017-Dec-02 23:01N 44°13' E 008°46'1020.8
2017-Dec-02 22:30N 44°20' E 008°58'510.8
2017-Dec-02 22:00N 44°25' E 008°55'0 0.1
2017-Dec-02 21:28N 44°25' E 008°55'0 0.0
2017-Dec-02 20:58N 44°25' E 008°55'0 0.0
2017-Dec-02 20:28N 44°25' E 008°55'0 0.0
2017-Dec-02 19:58N 44°25' E 008°55'0 0.0
2017-Dec-02 19:28N 44°25' E 008°55'0 0.0
2017-Dec-02 18:55N 44°25' E 008°55'0 0.0
2017-Dec-02 18:28N 44°25' E 008°55'0 0.0
2017-Dec-02 17:49N 44°25' E 008°55'0 0.0
2017-Dec-02 17:25N 44°25' E 008°55'0 0.0
2017-Dec-02 16:58N 44°25' E 008°55'0 0.0
2017-Dec-02 16:25N 44°25' E 008°55'0 0.0
2017-Dec-02 15:58N 44°25' E 008°55'0 0.0
2017-Dec-02 15:28N 44°25' E 008°55'0 0.0
2017-Dec-02 14:55N 44°25' E 008°55'0 0.0
2017-Dec-02 14:25N 44°25' E 008°55'0 0.0
2017-Dec-02 13:55N 44°25' E 008°55'0 0.0
2017-Dec-02 13:25N 44°25' E 008°55'0 0.0
2017-Dec-02 12:55N 44°25' E 008°55'0 0.0
2017-Dec-02 12:28N 44°25' E 008°55'0 0.0
2017-Dec-02 11:55N 44°25' E 008°55'0 0.0
2017-Dec-02 11:28N 44°25' E 008°55'0 0.1
2017-Dec-02 10:58N 44°25' E 008°55'0 0.3
2017-Dec-02 10:30N 44°24' E 008°55'0 0.0
2017-Dec-02 09:51N 44°24' E 008°55'0 0.0
2017-Dec-02 09:30N 44°24' E 008°55'0 0.0
2017-Dec-02 09:00N 44°24' E 008°55'0 0.0
2017-Dec-02 08:30N 44°24' E 008°55'2 3.1
2017-Dec-02 08:00N 44°23' E 008°56'510.6
2017-Dec-02 07:30N 44°18' E 008°58'1020.1
2017-Dec-02 07:00N 44°12' E 008°46'1019.9
2017-Dec-02 06:30N 44°06' E 008°35'1019.5
2017-Dec-02 06:00N 44°01' E 008°24'3819.1
2017-Dec-02 04:02N 43°37' E 007°43'318.9
2017-Dec-02 03:52N 43°35' E 007°40'718.9
2017-Dec-02 03:30N 43°30' E 007°33'1019.1
2017-Dec-02 03:01N 43°24' E 007°24'1019.6
2017-Dec-02 02:31N 43°18' E 007°13'1019.3
2017-Dec-02 02:00N 43°12' E 007°02'  

Dump ship's entire track history